createdAt,value
2019-02-26T00:00:03.374Z,45.43
2019-02-26T00:02:32.483Z,42.83
2019-02-26T00:05:01.288Z,46.43
2019-02-26T00:07:29.891Z,45.60
2019-02-26T00:09:57.565Z,44.00
2019-02-26T00:12:26.464Z,44.40
2019-02-26T00:14:55.034Z,48.00
2019-02-26T00:17:23.338Z,49.93
2019-02-26T00:19:50.232Z,46.83
2019-02-26T00:22:18.320Z,46.43
2019-02-26T00:24:46.629Z,45.00
2019-02-26T00:27:13.718Z,44.30
2019-02-26T00:29:40.700Z,42.00
2019-02-26T00:32:09.289Z,47.40
2019-02-26T00:34:37.301Z,50.97
2019-02-26T00:37:06.294Z,45.73
2019-02-26T00:39:33.887Z,52.47
2019-02-26T00:42:02.521Z,50.33
2019-02-26T00:44:30.626Z,54.07
2019-02-26T00:46:59.743Z,49.47
2019-02-26T00:49:28.470Z,49.03
2019-02-26T00:51:56.089Z,54.10
2019-02-26T00:54:24.505Z,49.90
2019-02-26T00:56:51.832Z,50.50
2019-02-26T00:59:18.804Z,51.57
2019-02-26T01:01:48.244Z,48.80
2019-02-26T01:04:15.136Z,44.00
2019-02-26T01:06:42.064Z,45.50
2019-02-26T01:09:12.133Z,44.40
2019-02-26T01:11:39.024Z,48.07
2019-02-26T01:14:05.881Z,48.33
2019-02-26T01:16:33.040Z,47.07
2019-02-26T01:19:00.000Z,57.13
2019-02-26T01:21:29.102Z,49.17
2019-02-26T01:23:56.707Z,49.97
2019-02-26T01:26:27.337Z,50.63
2019-02-26T01:28:54.181Z,46.30
2019-02-26T01:31:22.857Z,46.27
2019-02-26T01:33:52.884Z,51.67
2019-02-26T01:36:21.464Z,50.23
2019-02-26T01:38:49.169Z,46.40
2019-02-26T01:41:17.962Z,47.37
2019-02-26T01:43:46.024Z,44.30
2019-02-26T01:46:14.642Z,50.60
2019-02-26T01:48:41.592Z,51.10
2019-02-26T01:51:08.399Z,51.90
2019-02-26T01:53:35.488Z,48.37
2019-02-26T01:56:04.576Z,51.67
2019-02-26T01:58:33.487Z,50.20
2019-02-26T02:00:59.995Z,48.70
2019-02-26T02:03:27.986Z,48.20
2019-02-26T02:05:55.713Z,51.60
2019-02-26T02:08:24.863Z,47.07
2019-02-26T02:10:53.669Z,46.87
2019-02-26T02:13:20.091Z,49.73
2019-02-26T02:15:46.900Z,47.80
2019-02-26T02:18:13.746Z,53.43
2019-02-26T02:20:40.737Z,45.03
2019-02-26T02:23:07.773Z,46.10
2019-02-26T02:25:36.139Z,50.90
2019-02-26T02:28:04.527Z,49.03
2019-02-26T02:30:35.609Z,49.40
2019-02-26T02:33:02.146Z,55.00
2019-02-26T02:35:29.381Z,47.17
2019-02-26T02:37:59.355Z,53.60
2019-02-26T02:40:25.200Z,52.37
2019-02-26T02:42:52.084Z,54.20
2019-02-26T02:45:21.027Z,51.57
2019-02-26T02:47:48.132Z,53.03
2019-02-26T02:50:17.574Z,55.93
2019-02-26T02:52:43.869Z,53.33
2019-02-26T02:55:13.851Z,54.47
2019-02-26T02:57:39.748Z,58.30
2019-02-26T03:00:08.511Z,64.20
2019-02-26T03:02:40.564Z,62.37
2019-02-26T03:05:04.562Z,61.03
2019-02-26T03:07:31.481Z,57.17
2019-02-26T03:10:03.969Z,58.70
2019-02-26T03:12:29.648Z,58.93
2019-02-26T03:14:58.882Z,56.27
2019-02-26T03:17:25.259Z,54.27
2019-02-26T03:19:52.255Z,61.67
2019-02-26T03:22:21.576Z,59.00
2019-02-26T03:24:50.691Z,61.47
2019-02-26T03:27:16.868Z,65.37
2019-02-26T03:29:45.019Z,63.90
2019-02-26T03:32:12.882Z,60.00
2019-02-26T03:34:39.685Z,60.43
2019-02-26T03:37:08.220Z,59.60
2019-02-26T03:39:35.346Z,55.80
2019-02-26T03:42:02.574Z,60.90
2019-02-26T03:44:30.357Z,58.87
2019-02-26T03:46:57.376Z,58.60
2019-02-26T03:49:27.092Z,60.73
2019-02-26T03:51:52.972Z,54.77
2019-02-26T03:54:19.908Z,57.00
2019-02-26T03:56:46.766Z,58.13
2019-02-26T03:59:13.673Z,65.70
2019-02-26T04:01:40.471Z,56.37
2019-02-26T04:04:07.731Z,64.23
2019-02-26T04:06:36.604Z,60.00
2019-02-26T04:09:04.621Z,67.67
2019-02-26T04:11:31.520Z,58.70
2019-02-26T04:13:58.454Z,60.70
2019-02-26T04:16:25.416Z,58.00
2019-02-26T04:18:52.369Z,61.30
2019-02-26T04:21:21.142Z,64.13
2019-02-26T04:23:48.941Z,65.07
2019-02-26T04:26:21.044Z,59.20
2019-02-26T04:28:50.005Z,58.30
2019-02-26T04:31:24.406Z,59.63
2019-02-26T04:33:59.579Z,65.07
2019-02-26T04:36:47.107Z,60.80
2019-02-26T04:39:34.843Z,58.90
2019-02-26T04:42:16.892Z,62.20
2019-02-26T04:45:02.114Z,57.37
2019-02-26T04:47:33.144Z,63.97
2019-02-26T04:50:00.545Z,60.33
2019-02-26T04:52:29.363Z,59.37
2019-02-26T04:54:55.930Z,60.13
2019-02-26T04:57:22.923Z,56.47
2019-02-26T04:59:49.801Z,59.53
2019-02-26T05:02:16.769Z,59.50
2019-02-26T05:04:43.735Z,65.53
2019-02-26T05:07:13.454Z,63.50
2019-02-26T05:09:39.396Z,56.93
2019-02-26T05:12:06.316Z,58.00
2019-02-26T05:14:33.195Z,57.13
2019-02-26T05:17:00.066Z,55.63
2019-02-26T05:19:26.890Z,60.03
2019-02-26T05:21:55.964Z,60.63
2019-02-26T05:24:25.856Z,59.67
2019-02-26T05:26:52.610Z,55.47
2019-02-26T05:29:19.711Z,56.87
2019-02-26T05:31:46.775Z,57.23
2019-02-26T05:34:15.182Z,62.30
2019-02-26T05:36:45.869Z,57.03
2019-02-26T05:39:13.985Z,60.13
2019-02-26T05:41:41.663Z,59.63
2019-02-26T05:44:10.758Z,59.77
2019-02-26T05:46:37.774Z,59.90
2019-02-26T05:49:06.851Z,58.57
2019-02-26T05:51:35.475Z,57.97
2019-02-26T05:54:05.232Z,67.03
2019-02-26T05:56:31.075Z,66.13
2019-02-26T05:59:02.088Z,56.00
2019-02-26T06:01:27.821Z,65.80
2019-02-26T06:03:54.878Z,65.10
2019-02-26T06:06:21.963Z,66.60
2019-02-26T06:08:49.200Z,63.10
2019-02-26T06:11:17.038Z,63.37
2019-02-26T06:13:44.116Z,64.13
2019-02-26T06:16:10.994Z,64.43
2019-02-26T06:18:41.214Z,67.93
2019-02-26T06:21:06.705Z,63.60
2019-02-26T06:23:34.539Z,64.47
2019-02-26T06:26:09.738Z,62.83
2019-02-26T06:28:38.030Z,62.60
2019-02-26T06:31:03.264Z,62.17
2019-02-26T06:33:34.086Z,66.37
2019-02-26T06:35:59.881Z,66.83
2019-02-26T06:38:32.167Z,66.57
2019-02-26T06:40:57.800Z,68.27
2019-02-26T06:43:24.661Z,66.70
2019-02-26T06:45:51.511Z,67.90
2019-02-26T06:48:20.810Z,81.70
2019-02-26T06:50:46.992Z,65.40
2019-02-26T06:53:16.129Z,68.03
2019-02-26T06:55:42.620Z,73.27
2019-02-26T06:58:22.704Z,73.17
2019-02-26T07:00:53.337Z,70.63
2019-02-26T07:03:18.488Z,69.40
2019-02-26T07:05:46.551Z,64.83
2019-02-26T07:08:13.685Z,67.40
2019-02-26T07:10:40.636Z,66.20
2019-02-26T07:13:09.446Z,68.53
2019-02-26T07:15:36.272Z,67.77
2019-02-26T07:18:06.752Z,73.63
2019-02-26T07:20:34.277Z,65.77
2019-02-26T07:23:00.581Z,69.63
2019-02-26T07:25:27.431Z,69.60
2019-02-26T07:27:56.342Z,70.60
2019-02-26T07:30:23.244Z,69.37
2019-02-26T07:32:50.066Z,69.73
2019-02-26T07:35:17.369Z,74.80
2019-02-26T07:37:44.328Z,80.33
2019-02-26T07:40:15.231Z,75.57
2019-02-26T07:42:41.522Z,71.70
2019-02-26T07:45:15.062Z,67.40
2019-02-26T07:47:37.953Z,78.07
2019-02-26T07:50:06.804Z,67.20
2019-02-26T07:52:33.544Z,70.97
2019-02-26T07:55:00.334Z,74.43
2019-02-26T07:57:27.635Z,80.37
2019-02-26T07:59:54.715Z,75.90
2019-02-26T08:02:21.549Z,78.30
2019-02-26T08:04:48.689Z,77.63
2019-02-26T08:07:15.554Z,80.67
2019-02-26T08:09:42.543Z,79.63
2019-02-26T08:12:11.371Z,74.73
2019-02-26T08:14:40.207Z,81.53
2019-02-26T08:17:06.841Z,79.80
2019-02-26T08:19:34.959Z,80.57
2019-02-26T08:22:02.391Z,84.03
2019-02-26T08:24:29.266Z,77.87
2019-02-26T08:26:56.108Z,82.47
2019-02-26T08:29:24.510Z,81.87
2019-02-26T08:31:52.133Z,86.60
2019-02-26T08:34:20.428Z,84.53
2019-02-26T08:36:47.265Z,79.17
2019-02-26T08:39:15.701Z,78.27
2019-02-26T08:41:59.845Z,77.60
2019-02-26T08:44:28.119Z,77.70
2019-02-26T08:46:55.121Z,86.70
2019-02-26T08:49:22.546Z,92.63
2019-02-26T08:51:49.513Z,82.03
2019-02-26T08:54:20.934Z,76.00
2019-02-26T08:56:45.109Z,77.43
2019-02-26T08:59:12.106Z,87.90
2019-02-26T09:01:38.962Z,85.17
2019-02-26T09:04:05.836Z,92.90
2019-02-26T09:06:32.717Z,77.37
2019-02-26T09:09:00.168Z,88.53
2019-02-26T09:11:28.764Z,84.37
2019-02-26T09:13:59.383Z,82.13
2019-02-26T09:16:27.782Z,80.80
2019-02-26T09:18:54.447Z,88.67
2019-02-26T09:21:22.840Z,88.10
2019-02-26T09:23:54.900Z,86.87
2019-02-26T09:26:19.983Z,81.43
2019-02-26T09:28:48.188Z,76.57
2019-02-26T09:31:15.624Z,83.57
2019-02-26T09:33:43.460Z,91.37
2019-02-26T09:36:14.908Z,98.70
2019-02-26T09:38:41.778Z,87.07
2019-02-26T09:41:10.024Z,98.43
2019-02-26T09:43:38.792Z,83.33
2019-02-26T09:46:09.018Z,94.00
2019-02-26T09:48:35.923Z,87.67
2019-02-26T09:51:04.835Z,75.33
2019-02-26T09:53:32.961Z,81.53
2019-02-26T09:55:59.821Z,83.43
2019-02-26T09:58:27.021Z,82.17
2019-02-26T10:00:54.106Z,81.73
2019-02-26T10:03:21.131Z,83.33
2019-02-26T10:05:50.084Z,82.73
2019-02-26T10:08:17.337Z,85.63
2019-02-26T10:10:45.448Z,83.20
2019-02-26T10:13:15.489Z,82.20
2019-02-26T10:15:44.658Z,93.13
2019-02-26T10:18:11.500Z,84.77
2019-02-26T10:20:38.317Z,82.07
2019-02-26T10:23:06.305Z,92.97
2019-02-26T10:25:34.999Z,94.13
2019-02-26T10:28:05.702Z,90.60
2019-02-26T10:30:33.478Z,101.07
2019-02-26T10:33:02.758Z,104.70
2019-02-26T10:35:33.096Z,98.73
2019-02-26T10:38:00.440Z,105.77
2019-02-26T10:40:35.096Z,90.97
2019-02-26T10:42:56.625Z,95.17
2019-02-26T10:45:24.073Z,96.80
2019-02-26T10:47:51.737Z,90.73
2019-02-26T10:50:22.376Z,93.47
2019-02-26T10:52:48.713Z,87.30
2019-02-26T10:55:17.715Z,95.40
2019-02-26T10:57:44.605Z,98.83
2019-02-26T11:00:15.709Z,101.73
2019-02-26T11:02:43.401Z,90.13
2019-02-26T11:05:14.100Z,99.33
2019-02-26T11:07:40.171Z,88.20
2019-02-26T11:10:07.423Z,99.23
2019-02-26T11:12:34.560Z,85.27
2019-02-26T11:15:04.355Z,113.33
2019-02-26T11:17:31.650Z,103.30
2019-02-26T11:20:01.048Z,93.07
2019-02-26T11:22:28.054Z,101.40
2019-02-26T11:24:56.198Z,90.60
2019-02-26T11:27:24.171Z,94.80
2019-02-26T11:29:52.086Z,93.00
2019-02-26T11:32:19.760Z,102.93
2019-02-26T11:34:46.591Z,99.90
2019-02-26T11:37:13.381Z,94.93
2019-02-26T11:39:40.260Z,88.17
2019-02-26T11:42:07.073Z,87.63
2019-02-26T11:44:33.964Z,86.43
2019-02-26T11:47:00.808Z,100.73
2019-02-26T11:49:27.857Z,99.13
2019-02-26T11:51:55.020Z,88.70
2019-02-26T11:54:21.989Z,86.57
2019-02-26T11:56:49.887Z,90.17
2019-02-26T11:59:19.406Z,94.00
2019-02-26T12:01:46.678Z,92.03
2019-02-26T12:04:14.301Z,87.10
2019-02-26T12:06:42.336Z,104.30
2019-02-26T12:09:11.407Z,83.57
2019-02-26T12:11:38.497Z,92.53
2019-02-26T12:14:05.579Z,81.33
2019-02-26T12:16:32.634Z,81.17
2019-02-26T12:19:01.420Z,85.97
2019-02-26T12:21:29.957Z,87.77
2019-02-26T12:23:58.102Z,79.03
2019-02-26T12:26:27.914Z,87.00
2019-02-26T12:28:57.168Z,95.33
2019-02-26T12:31:25.318Z,94.07
2019-02-26T12:33:52.341Z,91.67
2019-02-26T12:36:21.222Z,87.47
2019-02-26T12:38:50.146Z,85.53
2019-02-26T12:41:19.084Z,83.30
2019-02-26T12:43:46.425Z,81.03
2019-02-26T12:46:19.204Z,91.00
2019-02-26T12:48:47.712Z,82.27
2019-02-26T12:51:14.635Z,92.80
2019-02-26T12:53:47.590Z,91.53
2019-02-26T12:56:13.524Z,81.70
2019-02-26T12:58:41.114Z,83.77
2019-02-26T13:01:09.297Z,85.83
2019-02-26T13:03:39.820Z,73.83
2019-02-26T13:08:36.089Z,80.97
2019-02-26T13:11:02.817Z,80.23
2019-02-26T13:13:29.693Z,78.00
2019-02-26T13:15:56.519Z,83.27
2019-02-26T13:18:24.387Z,81.87
2019-02-26T13:20:56.740Z,85.67
2019-02-26T13:23:21.808Z,82.73
2019-02-26T13:25:48.973Z,84.53
2019-02-26T13:28:16.358Z,82.30
2019-02-26T13:30:43.317Z,82.93
2019-02-26T13:33:11.396Z,95.97
2019-02-26T13:35:41.796Z,81.30
2019-02-26T13:38:07.910Z,78.63
2019-02-26T13:40:38.456Z,95.13
2019-02-26T13:45:32.294Z,113.33
2019-02-26T13:48:01.350Z,78.20
2019-02-26T13:50:28.630Z,84.07
2019-02-26T13:52:55.520Z,88.50
2019-02-26T13:55:22.389Z,113.17
2019-02-26T13:57:49.672Z,91.97
2019-02-26T14:00:23.561Z,100.23
2019-02-26T14:02:45.384Z,95.73
2019-02-26T14:05:12.685Z,88.80
2019-02-26T14:07:39.579Z,84.70
2019-02-26T14:10:07.747Z,101.93
2019-02-26T14:12:35.009Z,85.73
2019-02-26T14:15:03.744Z,84.60
2019-02-26T14:17:30.592Z,77.83
2019-02-26T14:19:57.805Z,92.37
2019-02-26T14:22:25.488Z,81.40
2019-02-26T14:24:52.522Z,82.00
2019-02-26T14:27:19.768Z,88.73
2019-02-26T14:29:47.413Z,84.30
2019-02-26T14:32:15.396Z,89.87
2019-02-26T14:34:42.498Z,99.00
2019-02-26T14:37:09.426Z,95.03
2019-02-26T14:39:36.318Z,97.70
2019-02-26T14:42:03.443Z,85.03
2019-02-26T14:44:30.571Z,94.17
2019-02-26T14:46:57.677Z,87.37
2019-02-26T14:49:25.106Z,100.10
2019-02-26T14:51:52.040Z,81.93
2019-02-26T14:54:18.907Z,90.30
2019-02-26T14:57:01.484Z,82.07
2019-02-26T14:59:28.339Z,94.00
2019-02-26T15:01:56.547Z,87.53
2019-02-26T15:04:23.561Z,96.47
2019-02-26T15:06:50.485Z,91.87
2019-02-26T15:09:17.821Z,91.27
2019-02-26T15:11:45.020Z,106.90
2019-02-26T15:14:12.074Z,96.17
2019-02-26T15:16:38.941Z,98.77
2019-02-26T15:19:05.810Z,100.13
2019-02-26T15:21:32.712Z,108.77
2019-02-26T15:23:59.903Z,99.43
2019-02-26T15:26:26.859Z,90.97
2019-02-26T15:28:53.852Z,97.53
2019-02-26T15:31:20.680Z,90.83
2019-02-26T15:33:47.853Z,91.60
2019-02-26T15:36:14.811Z,95.90
2019-02-26T15:38:41.701Z,107.47
2019-02-26T15:41:08.504Z,92.87
2019-02-26T15:43:35.472Z,99.83
2019-02-26T15:46:02.367Z,106.77
2019-02-26T15:48:29.268Z,96.43
2019-02-26T15:50:58.047Z,98.03
2019-02-26T15:53:25.262Z,103.23
2019-02-26T15:55:52.191Z,99.47
2019-02-26T15:58:19.081Z,89.33
2019-02-26T16:00:45.975Z,101.27
2019-02-26T16:03:12.876Z,98.67
2019-02-26T16:05:39.800Z,114.40
2019-02-26T16:10:35.659Z,98.13
2019-02-26T16:13:05.531Z,101.17
2019-02-26T16:15:33.003Z,113.20
2019-02-26T16:17:59.845Z,107.03
2019-02-26T16:20:27.092Z,107.17
2019-02-26T16:22:54.005Z,110.13
2019-02-26T16:25:20.917Z,98.13
2019-02-26T16:27:47.828Z,113.70
2019-02-26T16:30:18.190Z,114.50
2019-02-26T16:32:45.092Z,108.30
2019-02-26T16:35:11.997Z,112.93
2019-02-26T16:37:41.596Z,118.30
2019-02-26T16:40:08.152Z,110.13
2019-02-26T16:42:36.036Z,105.47
2019-02-26T16:45:03.340Z,126.03
2019-02-26T16:47:30.163Z,114.33
2019-02-26T16:49:58.643Z,114.80
2019-02-26T16:52:27.750Z,122.17
2019-02-26T16:54:54.886Z,107.10
2019-02-26T16:57:21.913Z,112.13
2019-02-26T16:59:48.730Z,111.37
2019-02-26T17:02:16.231Z,123.73
2019-02-26T17:04:43.077Z,115.77
2019-02-26T17:07:09.855Z,114.53
2019-02-26T17:09:37.304Z,113.87
2019-02-26T17:12:04.292Z,114.80
2019-02-26T17:14:31.194Z,119.77
2019-02-26T17:16:58.416Z,121.40
2019-02-26T17:19:26.194Z,116.00
2019-02-26T17:21:54.160Z,118.77
2019-02-26T17:24:21.597Z,117.27
2019-02-26T17:26:48.528Z,123.20
2019-02-26T17:29:16.911Z,126.73
2019-02-26T17:31:44.246Z,125.50
2019-02-26T17:34:11.459Z,118.60
2019-02-26T17:36:38.361Z,116.73
2019-02-26T17:39:05.418Z,131.30
2019-02-26T17:41:32.281Z,124.80
2019-02-26T17:43:59.670Z,126.03
2019-02-26T17:46:26.701Z,122.10
2019-02-26T17:48:53.773Z,123.93
2019-02-26T17:51:20.655Z,127.00
2019-02-26T17:53:47.491Z,138.57
2019-02-26T17:56:14.819Z,129.53
2019-02-26T17:58:43.854Z,140.20
2019-02-26T18:01:11.111Z,130.17
2019-02-26T18:03:38.154Z,130.60
2019-02-26T18:06:05.023Z,124.63
2019-02-26T18:08:32.118Z,129.47
2019-02-26T18:10:58.900Z,133.97
2019-02-26T18:13:25.706Z,140.60
2019-02-26T18:15:56.083Z,153.73
2019-02-26T18:18:41.205Z,149.23
2019-02-26T18:21:08.197Z,165.23
2019-02-26T18:23:37.564Z,138.90
2019-02-26T18:26:03.788Z,138.43
2019-02-26T18:28:30.641Z,144.67
2019-02-26T18:30:57.500Z,137.47
2019-02-26T18:33:24.361Z,143.23
2019-02-26T18:35:51.202Z,159.90
2019-02-26T18:38:18.120Z,139.23
2019-02-26T18:40:44.971Z,154.57
2019-02-26T18:43:14.363Z,171.60
2019-02-26T18:45:42.301Z,144.47
2019-02-26T18:48:09.996Z,164.70
2019-02-26T18:50:37.230Z,162.27
2019-02-26T18:53:05.813Z,183.80
2019-02-26T18:55:32.779Z,179.13
2019-02-26T18:58:00.247Z,161.47
2019-02-26T19:00:27.788Z,158.53
2019-02-26T19:02:54.667Z,141.77
2019-02-26T19:05:21.596Z,119.10
2019-02-26T19:07:48.840Z,132.90
2019-02-26T19:10:19.403Z,123.53
2019-02-26T19:12:44.829Z,122.93
2019-02-26T19:15:12.596Z,113.53
2019-02-26T19:17:41.979Z,118.27
2019-02-26T19:20:09.495Z,107.63
2019-02-26T19:22:36.365Z,111.33
2019-02-26T19:25:03.535Z,118.60
2019-02-26T19:27:30.455Z,124.10
2019-02-26T19:29:57.309Z,116.30
2019-02-26T19:32:25.895Z,115.63
2019-02-26T19:34:52.946Z,124.00
2019-02-26T19:37:22.349Z,117.57
2019-02-26T19:39:48.558Z,120.93
2019-02-26T19:42:17.828Z,120.60
2019-02-26T19:44:44.394Z,117.47
2019-02-26T19:47:11.390Z,118.20
2019-02-26T19:49:39.729Z,135.03
2019-02-26T19:52:07.185Z,120.03
2019-02-26T19:54:34.089Z,134.10
2019-02-26T19:57:01.017Z,113.60
2019-02-26T19:59:28.956Z,116.43
2019-02-26T20:01:58.671Z,123.40
2019-02-26T20:04:24.856Z,176.50
2019-02-26T20:06:51.809Z,156.00
2019-02-26T20:09:20.198Z,137.80
2019-02-26T20:11:48.292Z,138.57
2019-02-26T20:14:21.197Z,175.60
2019-02-26T20:16:44.336Z,152.17
2019-02-26T20:19:13.378Z,146.57
2019-02-26T20:21:40.381Z,155.93
2019-02-26T20:24:07.747Z,177.00
2019-02-26T20:26:34.629Z,147.60
2019-02-26T20:29:01.642Z,155.97
2019-02-26T20:31:28.986Z,149.10
2019-02-26T20:33:56.387Z,156.37
2019-02-26T20:36:23.386Z,147.87
2019-02-26T20:38:50.183Z,148.37
2019-02-26T20:41:17.332Z,154.93
2019-02-26T20:43:44.214Z,162.03
2019-02-26T20:46:11.062Z,165.73
2019-02-26T20:48:38.567Z,166.80
2019-02-26T20:51:05.548Z,158.63
2019-02-26T20:53:32.375Z,159.17
2019-02-26T20:55:59.220Z,150.33
2019-02-26T20:58:27.076Z,146.30
2019-02-26T21:00:53.936Z,157.40
2019-02-26T21:03:20.905Z,154.10
2019-02-26T21:05:47.724Z,161.63
2019-02-26T21:08:16.153Z,173.10
2019-02-26T21:10:42.952Z,162.30
2019-02-26T21:13:09.971Z,162.53
2019-02-26T21:15:36.859Z,166.07
2019-02-26T21:18:04.767Z,172.33
2019-02-26T21:20:31.825Z,169.40
2019-02-26T21:22:58.696Z,160.23
2019-02-26T21:25:25.968Z,169.03
2019-02-26T21:27:52.776Z,163.77
2019-02-26T21:30:19.639Z,162.57
2019-02-26T21:32:46.868Z,160.70
2019-02-26T21:35:13.716Z,159.70
2019-02-26T21:37:40.588Z,150.23
2019-02-26T21:40:07.898Z,164.97
2019-02-26T21:42:34.701Z,147.13
2019-02-26T21:45:01.925Z,154.27
2019-02-26T21:47:28.776Z,157.60
2019-02-26T21:49:55.901Z,154.23
2019-02-26T21:52:22.774Z,167.80
2019-02-26T21:54:49.618Z,176.67
2019-02-26T21:57:16.547Z,154.97
2019-02-26T21:59:49.825Z,162.47
2019-02-26T22:02:12.229Z,169.93
2019-02-26T22:04:39.112Z,160.73
2019-02-26T22:07:05.976Z,178.10
2019-02-26T22:09:33.399Z,186.73
2019-02-26T22:12:03.070Z,193.70
2019-02-26T22:14:30.334Z,211.17
2019-02-26T22:16:57.559Z,179.00
2019-02-26T22:19:25.185Z,179.90
2019-02-26T22:21:52.881Z,183.53
2019-02-26T22:24:20.102Z,188.37
2019-02-26T22:26:47.077Z,175.03
2019-02-26T22:29:15.292Z,172.07
2019-02-26T22:31:42.908Z,186.30
2019-02-26T22:34:09.777Z,168.03
2019-02-26T22:36:36.703Z,180.57
2019-02-26T22:39:04.808Z,174.83
2019-02-26T22:41:32.764Z,163.67
2019-02-26T22:44:01.124Z,170.37
2019-02-26T22:46:33.650Z,169.43
2019-02-26T22:48:59.587Z,169.60
2019-02-26T22:51:26.776Z,189.73
2019-02-26T22:53:54.078Z,183.40
2019-02-26T22:56:21.940Z,175.77
2019-02-26T22:58:49.713Z,192.20
2019-02-26T23:01:30.070Z,182.40
2019-02-26T23:03:49.574Z,182.50
2019-02-26T23:06:16.419Z,195.80
2019-02-26T23:08:46.483Z,192.83
2019-02-26T23:11:14.311Z,184.73
2019-02-26T23:13:41.191Z,197.20
2019-02-26T23:16:08.460Z,167.20
2019-02-26T23:18:35.396Z,180.87
2019-02-26T23:21:02.609Z,204.17
2019-02-26T23:23:29.492Z,187.80
2019-02-26T23:25:58.790Z,170.73
2019-02-26T23:28:25.853Z,176.33
2019-02-26T23:30:53.118Z,162.30
2019-02-26T23:33:20.217Z,178.50
2019-02-26T23:35:47.353Z,176.30
2019-02-26T23:38:14.290Z,177.63
2019-02-26T23:40:41.094Z,184.63
2019-02-26T23:43:11.831Z,166.83
2019-02-26T23:45:38.356Z,171.00
2019-02-26T23:48:07.839Z,180.57
2019-02-26T23:50:34.324Z,167.53
2019-02-26T23:53:01.763Z,178.17
2019-02-26T23:55:28.769Z,181.37
2019-02-26T23:57:57.762Z,183.97
